パリ/シャルル・ド・ゴール の空港の天気 - METARとTAF

シャルル・ド・ゴール国際空港(パリ) ( LFPG / CDG ) - フランス Paris
飛行場実況気象(Metar)
観測時間07/20 13:00 CEST (07/20 11:00 UTC)
風向・風速南南西 8m/s
視程10km以上
天気現象
なし
気温26℃
湿度48%
気圧1012hPa
METARLFPG 201100Z 21015KT 180V280 CAVOK 26/14 Q1012 NOSIG
過去の天気等 Google飛行場航空写真 Wunderground天気予報

過去48時間のMETAR

飛行場予報(TAF)
発表時間: 7/20 08:58 CEST (7/20 06:58 UTC)
予報対象時間: 20日8時 CEST ~ 21日14時 CEST
風向・風速南西 5m/s
視程10km以上
なし
20日9時 CEST ~ 20日10時 CEST に一時的に
天気現象
少しの積乱雲 雲底高度 1220m
20日13時 CEST ~ 20日19時 CEST に一時的に
風向・風速西南西 8m/s 瞬間風速 13m/s
20日13時 CEST ~ 20日17時 CEST に 確率 40% で一時的に
視程4000m
天気現象しゅう雨
全天の4割程度の塔状積雲 雲底高度 1220m
20日15時 CEST ~ 20日17時 CEST に 確率 30% で一時的に
風向・風速西 8m/s 瞬間風速 18m/s
天気現象雷雨
全天の4割程度の積乱雲 雲底高度 1220m
20日20時 CEST ~ 20日22時 CEST に徐々に
風向・風速西北西 3m/s
TAF AMD LFPG 200658Z 2006/2112 22010KT CAVOK TX28/2015Z TN16/2105Z
TEMPO 2007/2008 TS FEW040CB
TEMPO 2011/2017 24015G25KT
PROB40 TEMPO 2011/2015 4000 SHRA SCT040TCU
PROB30 TEMPO 2013/2015 26015G35KT TSRA SCT040CB
BECMG 2018/2020 30005KT